sensor_id;sensor_type;location;lat;lon;timestamp;temperature;humidity
49032;DHT22;63443;48.366;10.876;2023-04-26T00:01:00;7.70;99.90
49032;DHT22;63443;48.366;10.876;2023-04-26T00:03:25;7.70;99.90
49032;DHT22;63443;48.366;10.876;2023-04-26T00:05:51;7.70;99.90
49032;DHT22;63443;48.366;10.876;2023-04-26T00:08:17;7.70;99.90
49032;DHT22;63443;48.366;10.876;2023-04-26T00:10:42;7.60;99.90
49032;DHT22;63443;48.366;10.876;2023-04-26T00:13:07;7.60;99.90
49032;DHT22;63443;48.366;10.876;2023-04-26T00:15:33;7.60;99.90
49032;DHT22;63443;48.366;10.876;2023-04-26T00:17:58;7.50;99.90
49032;DHT22;63443;48.366;10.876;2023-04-26T00:20:24;7.50;99.90
49032;DHT22;63443;48.366;10.876;2023-04-26T00:22:49;7.50;99.90
49032;DHT22;63443;48.366;10.876;2023-04-26T00:25:15;7.50;99.90
49032;DHT22;63443;48.366;10.876;2023-04-26T00:27:40;7.50;99.90
49032;DHT22;63443;48.366;10.876;2023-04-26T00:30:06;7.40;99.90
49032;DHT22;63443;48.366;10.876;2023-04-26T00:32:32;7.40;99.90
49032;DHT22;63443;48.366;10.876;2023-04-26T00:34:59;7.40;99.90
49032;DHT22;63443;48.366;10.876;2023-04-26T00:37:25;7.40;99.90
49032;DHT22;63443;48.366;10.876;2023-04-26T00:39:50;7.30;99.90
49032;DHT22;63443;48.366;10.876;2023-04-26T00:42:16;7.30;99.90
49032;DHT22;63443;48.366;10.876;2023-04-26T00:44:41;7.30;99.90
49032;DHT22;63443;48.366;10.876;2023-04-26T00:47:06;7.30;99.90
49032;DHT22;63443;48.366;10.876;2023-04-26T00:49:32;7.30;99.90
49032;DHT22;63443;48.366;10.876;2023-04-26T00:51:58;7.20;99.90
49032;DHT22;63443;48.366;10.876;2023-04-26T00:54:23;7.30;99.90
49032;DHT22;63443;48.366;10.876;2023-04-26T00:56:49;7.30;99.90
49032;DHT22;63443;48.366;10.876;2023-04-26T00:59:18;7.30;99.90
49032;DHT22;63443;48.366;10.876;2023-04-26T01:01:43;7.20;99.90
49032;DHT22;63443;48.366;10.876;2023-04-26T01:04:09;7.20;99.90
49032;DHT22;63443;48.366;10.876;2023-04-26T01:06:34;7.20;99.90
49032;DHT22;63443;48.366;10.876;2023-04-26T01:09:01;7.20;99.90
49032;DHT22;63443;48.366;10.876;2023-04-26T01:11:28;7.20;99.90
49032;DHT22;63443;48.366;10.876;2023-04-26T01:13:53;7.20;99.90
49032;DHT22;63443;48.366;10.876;2023-04-26T01:16:20;7.20;99.90
49032;DHT22;63443;48.366;10.876;2023-04-26T01:18:52;7.20;99.90
49032;DHT22;63443;48.366;10.876;2023-04-26T01:21:20;7.30;99.90
49032;DHT22;63443;48.366;10.876;2023-04-26T01:23:47;7.30;99.90
49032;DHT22;63443;48.366;10.876;2023-04-26T01:26:12;7.30;99.90
49032;DHT22;63443;48.366;10.876;2023-04-26T01:28:38;7.30;99.90
49032;DHT22;63443;48.366;10.876;2023-04-26T01:31:03;7.30;99.90
49032;DHT22;63443;48.366;10.876;2023-04-26T01:33:29;7.30;99.90
49032;DHT22;63443;48.366;10.876;2023-04-26T01:35:54;7.30;99.90
49032;DHT22;63443;48.366;10.876;2023-04-26T01:38:20;7.30;99.90
49032;DHT22;63443;48.366;10.876;2023-04-26T01:40:45;7.20;99.90
49032;DHT22;63443;48.366;10.876;2023-04-26T01:43:11;7.20;99.90
49032;DHT22;63443;48.366;10.876;2023-04-26T01:45:37;7.30;99.90
49032;DHT22;63443;48.366;10.876;2023-04-26T01:48:02;7.30;99.90
49032;DHT22;63443;48.366;10.876;2023-04-26T01:50:28;7.20;99.90
49032;DHT22;63443;48.366;10.876;2023-04-26T01:52:53;7.20;99.90
49032;DHT22;63443;48.366;10.876;2023-04-26T01:55:19;7.20;99.90
49032;DHT22;63443;48.366;10.876;2023-04-26T01:57:44;7.10;99.90
49032;DHT22;63443;48.366;10.876;2023-04-26T02:00:10;7.10;99.90
49032;DHT22;63443;48.366;10.876;2023-04-26T02:02:36;7.10;99.90
49032;DHT22;63443;48.366;10.876;2023-04-26T02:05:02;7.10;99.90
49032;DHT22;63443;48.366;10.876;2023-04-26T02:07:27;7.10;99.90
49032;DHT22;63443;48.366;10.876;2023-04-26T02:09:53;7.20;99.90
49032;DHT22;63443;48.366;10.876;2023-04-26T02:12:18;7.10;99.90
49032;DHT22;63443;48.366;10.876;2023-04-26T02:14:44;7.10;99.90
49032;DHT22;63443;48.366;10.876;2023-04-26T02:17:09;7.30;99.90
49032;DHT22;63443;48.366;10.876;2023-04-26T02:19:35;7.20;99.90
49032;DHT22;63443;48.366;10.876;2023-04-26T02:22:03;7.20;99.90
49032;DHT22;63443;48.366;10.876;2023-04-26T02:24:29;7.20;99.90
49032;DHT22;63443;48.366;10.876;2023-04-26T02:26:55;7.20;99.90
49032;DHT22;63443;48.366;10.876;2023-04-26T02:29:20;7.20;99.90
49032;DHT22;63443;48.366;10.876;2023-04-26T02:31:46;7.30;99.90
49032;DHT22;63443;48.366;10.876;2023-04-26T02:34:13;7.30;99.90
49032;DHT22;63443;48.366;10.876;2023-04-26T02:36:38;7.40;99.90
49032;DHT22;63443;48.366;10.876;2023-04-26T02:39:04;7.40;99.90
49032;DHT22;63443;48.366;10.876;2023-04-26T02:41:33;7.30;99.90
49032;DHT22;63443;48.366;10.876;2023-04-26T02:43:58;7.30;99.90
49032;DHT22;63443;48.366;10.876;2023-04-26T02:46:24;7.40;99.90
49032;DHT22;63443;48.366;10.876;2023-04-26T02:48:50;7.40;99.90
49032;DHT22;63443;48.366;10.876;2023-04-26T02:51:15;7.40;99.90
49032;DHT22;63443;48.366;10.876;2023-04-26T02:53:41;7.30;99.90
49032;DHT22;63443;48.366;10.876;2023-04-26T02:56:06;7.30;99.90
49032;DHT22;63443;48.366;10.876;2023-04-26T02:58:32;7.20;99.90
49032;DHT22;63443;48.366;10.876;2023-04-26T03:00:57;7.20;99.90
49032;DHT22;63443;48.366;10.876;2023-04-26T03:03:24;7.20;99.90
49032;DHT22;63443;48.366;10.876;2023-04-26T03:05:49;7.20;99.90
49032;DHT22;63443;48.366;10.876;2023-04-26T03:08:15;7.20;99.90
49032;DHT22;63443;48.366;10.876;2023-04-26T03:10:40;7.20;99.90
49032;DHT22;63443;48.366;10.876;2023-04-26T03:13:06;7.20;99.90
49032;DHT22;63443;48.366;10.876;2023-04-26T03:15:32;7.20;99.90
49032;DHT22;63443;48.366;10.876;2023-04-26T03:17:57;7.20;99.90
49032;DHT22;63443;48.366;10.876;2023-04-26T03:20:23;7.20;99.90
49032;DHT22;63443;48.366;10.876;2023-04-26T03:22:49;7.20;99.90
49032;DHT22;63443;48.366;10.876;2023-04-26T03:25:15;7.20;99.90
49032;DHT22;63443;48.366;10.876;2023-04-26T03:27:41;7.20;99.90
49032;DHT22;63443;48.366;10.876;2023-04-26T03:30:07;7.10;99.90
49032;DHT22;63443;48.366;10.876;2023-04-26T03:32:33;7.00;99.90
49032;DHT22;63443;48.366;10.876;2023-04-26T03:34:58;7.10;99.90
49032;DHT22;63443;48.366;10.876;2023-04-26T03:37:24;7.10;99.90
49032;DHT22;63443;48.366;10.876;2023-04-26T03:39:49;7.10;99.90
49032;DHT22;63443;48.366;10.876;2023-04-26T03:42:17;7.10;99.90
49032;DHT22;63443;48.366;10.876;2023-04-26T03:44:42;7.10;99.90
49032;DHT22;63443;48.366;10.876;2023-04-26T03:47:08;7.00;99.90
49032;DHT22;63443;48.366;10.876;2023-04-26T03:49:33;7.00;99.90
49032;DHT22;63443;48.366;10.876;2023-04-26T03:51:59;7.10;99.90
49032;DHT22;63443;48.366;10.876;2023-04-26T03:54:24;7.10;99.90
49032;DHT22;63443;48.366;10.876;2023-04-26T03:56:50;7.00;99.90
49032;DHT22;63443;48.366;10.876;2023-04-26T03:59:16;7.00;99.90
49032;DHT22;63443;48.366;10.876;2023-04-26T04:01:41;7.10;99.90
49032;DHT22;63443;48.366;10.876;2023-04-26T04:04:07;7.10;99.90
49032;DHT22;63443;48.366;10.876;2023-04-26T04:06:32;7.00;99.90
49032;DHT22;63443;48.366;10.876;2023-04-26T04:08:58;7.00;99.90
49032;DHT22;63443;48.366;10.876;2023-04-26T04:11:23;7.00;99.90
49032;DHT22;63443;48.366;10.876;2023-04-26T04:13:49;6.90;99.90
49032;DHT22;63443;48.366;10.876;2023-04-26T04:16:15;6.80;99.90
49032;DHT22;63443;48.366;10.876;2023-04-26T04:18:40;6.80;99.90
49032;DHT22;63443;48.366;10.876;2023-04-26T04:21:06;6.80;99.90
49032;DHT22;63443;48.366;10.876;2023-04-26T04:23:31;6.80;99.90
49032;DHT22;63443;48.366;10.876;2023-04-26T04:25:57;6.70;99.90
49032;DHT22;63443;48.366;10.876;2023-04-26T04:28:22;6.70;99.90
49032;DHT22;63443;48.366;10.876;2023-04-26T04:30:48;6.80;99.90
49032;DHT22;63443;48.366;10.876;2023-04-26T04:33:14;6.80;99.90
49032;DHT22;63443;48.366;10.876;2023-04-26T04:35:40;6.80;99.90
49032;DHT22;63443;48.366;10.876;2023-04-26T04:38:06;6.70;99.90
49032;DHT22;63443;48.366;10.876;2023-04-26T04:40:32;6.70;99.90
49032;DHT22;63443;48.366;10.876;2023-04-26T04:42:58;6.70;99.90
49032;DHT22;63443;48.366;10.876;2023-04-26T04:45:25;6.70;99.90
49032;DHT22;63443;48.366;10.876;2023-04-26T04:47:51;6.70;99.90
49032;DHT22;63443;48.366;10.876;2023-04-26T04:50:18;6.70;99.90
49032;DHT22;63443;48.366;10.876;2023-04-26T04:52:44;6.70;99.90
49032;DHT22;63443;48.366;10.876;2023-04-26T04:55:09;6.80;99.90
49032;DHT22;63443;48.366;10.876;2023-04-26T04:57:35;6.80;99.90
49032;DHT22;63443;48.366;10.876;2023-04-26T05:00:01;6.80;99.90
49032;DHT22;63443;48.366;10.876;2023-04-26T05:02:34;6.80;99.90
49032;DHT22;63443;48.366;10.876;2023-04-26T05:05:00;6.80;99.90
49032;DHT22;63443;48.366;10.876;2023-04-26T05:07:26;6.80;99.90
49032;DHT22;63443;48.366;10.876;2023-04-26T05:09:51;6.80;99.90
49032;DHT22;63443;48.366;10.876;2023-04-26T05:12:17;6.90;99.90
49032;DHT22;63443;48.366;10.876;2023-04-26T05:14:42;6.80;99.90
49032;DHT22;63443;48.366;10.876;2023-04-26T05:17:08;6.90;99.90
49032;DHT22;63443;48.366;10.876;2023-04-26T05:19:33;6.90;99.90
49032;DHT22;63443;48.366;10.876;2023-04-26T05:21:59;6.90;99.90
49032;DHT22;63443;48.366;10.876;2023-04-26T05:24:24;7.10;99.90
49032;DHT22;63443;48.366;10.876;2023-04-26T05:26:50;7.10;99.90
49032;DHT22;63443;48.366;10.876;2023-04-26T05:29:15;7.20;99.90
49032;DHT22;63443;48.366;10.876;2023-04-26T05:31:41;7.20;99.90
49032;DHT22;63443;48.366;10.876;2023-04-26T05:34:07;7.20;99.90
49032;DHT22;63443;48.366;10.876;2023-04-26T05:36:32;7.10;99.90
49032;DHT22;63443;48.366;10.876;2023-04-26T05:38:58;7.20;99.90
49032;DHT22;63443;48.366;10.876;2023-04-26T05:41:23;7.30;99.90
49032;DHT22;63443;48.366;10.876;2023-04-26T05:43:49;7.30;99.90
49032;DHT22;63443;48.366;10.876;2023-04-26T05:46:14;7.30;99.90
49032;DHT22;63443;48.366;10.876;2023-04-26T05:48:40;7.30;99.90
49032;DHT22;63443;48.366;10.876;2023-04-26T05:51:06;7.40;99.90
49032;DHT22;63443;48.366;10.876;2023-04-26T05:53:31;7.40;99.90
49032;DHT22;63443;48.366;10.876;2023-04-26T05:55:58;7.50;99.90
49032;DHT22;63443;48.366;10.876;2023-04-26T05:58:23;7.50;99.90
49032;DHT22;63443;48.366;10.876;2023-04-26T06:00:49;7.60;99.90
49032;DHT22;63443;48.366;10.876;2023-04-26T06:03:14;7.70;99.90
49032;DHT22;63443;48.366;10.876;2023-04-26T06:05:40;7.90;99.90
49032;DHT22;63443;48.366;10.876;2023-04-26T06:08:05;8.10;99.90
49032;DHT22;63443;48.366;10.876;2023-04-26T06:10:31;8.20;99.90
49032;DHT22;63443;48.366;10.876;2023-04-26T06:12:57;8.20;99.90
49032;DHT22;63443;48.366;10.876;2023-04-26T06:15:23;8.20;99.90
49032;DHT22;63443;48.366;10.876;2023-04-26T06:17:48;8.20;99.90
49032;DHT22;63443;48.366;10.876;2023-04-26T06:20:14;8.20;99.90
49032;DHT22;63443;48.366;10.876;2023-04-26T06:22:39;8.20;99.90
49032;DHT22;63443;48.366;10.876;2023-04-26T06:25:06;8.20;99.90
49032;DHT22;63443;48.366;10.876;2023-04-26T06:27:32;8.10;99.90
49032;DHT22;63443;48.366;10.876;2023-04-26T06:29:58;8.10;99.90
49032;DHT22;63443;48.366;10.876;2023-04-26T06:32:23;8.10;99.90
49032;DHT22;63443;48.366;10.876;2023-04-26T06:34:49;8.20;99.90
49032;DHT22;63443;48.366;10.876;2023-04-26T06:37:14;8.20;99.90
49032;DHT22;63443;48.366;10.876;2023-04-26T06:39:40;8.20;99.90
49032;DHT22;63443;48.366;10.876;2023-04-26T06:42:06;8.20;99.90
49032;DHT22;63443;48.366;10.876;2023-04-26T06:44:31;8.20;99.90
49032;DHT22;63443;48.366;10.876;2023-04-26T06:46:57;8.20;99.90
49032;DHT22;63443;48.366;10.876;2023-04-26T06:49:23;8.30;99.90
49032;DHT22;63443;48.366;10.876;2023-04-26T06:51:49;8.40;99.90
49032;DHT22;63443;48.366;10.876;2023-04-26T06:54:14;8.50;99.90
49032;DHT22;63443;48.366;10.876;2023-04-26T06:56:40;8.60;99.90
49032;DHT22;63443;48.366;10.876;2023-04-26T06:59:06;8.70;99.90
49032;DHT22;63443;48.366;10.876;2023-04-26T07:01:34;8.70;99.90
49032;DHT22;63443;48.366;10.876;2023-04-26T07:04:03;8.70;99.90
49032;DHT22;63443;48.366;10.876;2023-04-26T07:06:31;8.70;99.90
49032;DHT22;63443;48.366;10.876;2023-04-26T07:08:59;8.70;99.90
49032;DHT22;63443;48.366;10.876;2023-04-26T07:11:27;8.80;99.90
49032;DHT22;63443;48.366;10.876;2023-04-26T07:13:52;8.90;99.90
49032;DHT22;63443;48.366;10.876;2023-04-26T07:16:18;8.90;99.90
49032;DHT22;63443;48.366;10.876;2023-04-26T07:18:43;9.00;99.90
49032;DHT22;63443;48.366;10.876;2023-04-26T07:21:09;9.10;99.90
49032;DHT22;63443;48.366;10.876;2023-04-26T07:23:34;9.10;99.90
49032;DHT22;63443;48.366;10.876;2023-04-26T07:26:01;9.30;99.90
49032;DHT22;63443;48.366;10.876;2023-04-26T07:28:31;9.40;99.90
49032;DHT22;63443;48.366;10.876;2023-04-26T07:31:00;9.50;99.90
49032;DHT22;63443;48.366;10.876;2023-04-26T07:33:26;9.60;99.90
49032;DHT22;63443;48.366;10.876;2023-04-26T07:35:59;9.70;99.90
49032;DHT22;63443;48.366;10.876;2023-04-26T07:38:26;9.90;99.90
49032;DHT22;63443;48.366;10.876;2023-04-26T07:40:51;9.90;99.90
49032;DHT22;63443;48.366;10.876;2023-04-26T07:43:18;9.90;99.90
49032;DHT22;63443;48.366;10.876;2023-04-26T07:45:43;9.90;99.10
49032;DHT22;63443;48.366;10.876;2023-04-26T07:48:09;9.90;99.60
49032;DHT22;63443;48.366;10.876;2023-04-26T07:50:34;9.90;99.90
49032;DHT22;63443;48.366;10.876;2023-04-26T07:53:00;9.80;99.90
49032;DHT22;63443;48.366;10.876;2023-04-26T07:58:51;9.80;99.90
49032;DHT22;63443;48.366;10.876;2023-04-26T08:01:16;9.80;99.90
49032;DHT22;63443;48.366;10.876;2023-04-26T08:03:42;9.80;99.90
49032;DHT22;63443;48.366;10.876;2023-04-26T08:06:07;9.80;99.90
49032;DHT22;63443;48.366;10.876;2023-04-26T08:08:34;9.80;99.90
49032;DHT22;63443;48.366;10.876;2023-04-26T08:11:06;9.90;99.90
49032;DHT22;63443;48.366;10.876;2023-04-26T08:13:32;10.00;99.90
49032;DHT22;63443;48.366;10.876;2023-04-26T08:15:57;10.10;99.90
49032;DHT22;63443;48.366;10.876;2023-04-26T08:18:23;10.20;99.90
49032;DHT22;63443;48.366;10.876;2023-04-26T08:20:48;10.40;99.90
49032;DHT22;63443;48.366;10.876;2023-04-26T08:23:14;10.50;99.90
49032;DHT22;63443;48.366;10.876;2023-04-26T08:25:39;10.60;99.70
49032;DHT22;63443;48.366;10.876;2023-04-26T08:28:05;10.70;99.40
49032;DHT22;63443;48.366;10.876;2023-04-26T08:30:33;10.70;99.50
49032;DHT22;63443;48.366;10.876;2023-04-26T08:32:58;10.80;99.00
49032;DHT22;63443;48.366;10.876;2023-04-26T08:35:24;10.90;98.80
49032;DHT22;63443;48.366;10.876;2023-04-26T08:37:50;11.00;98.90
49032;DHT22;63443;48.366;10.876;2023-04-26T08:40:21;11.10;98.80
49032;DHT22;63443;48.366;10.876;2023-04-26T08:42:47;11.30;98.50
49032;DHT22;63443;48.366;10.876;2023-04-26T08:45:14;11.40;98.10
49032;DHT22;63443;48.366;10.876;2023-04-26T08:47:47;11.40;98.10
49032;DHT22;63443;48.366;10.876;2023-04-26T08:50:14;11.50;97.40
49032;DHT22;63443;48.366;10.876;2023-04-26T08:52:41;11.50;96.70
49032;DHT22;63443;48.366;10.876;2023-04-26T08:55:09;11.50;97.10
49032;DHT22;63443;48.366;10.876;2023-04-26T08:57:35;11.50;97.30
49032;DHT22;63443;48.366;10.876;2023-04-26T09:00:02;11.60;97.30
49032;DHT22;63443;48.366;10.876;2023-04-26T09:02:34;11.60;96.90
49032;DHT22;63443;48.366;10.876;2023-04-26T09:05:01;11.70;96.20
49032;DHT22;63443;48.366;10.876;2023-04-26T09:07:32;11.80;95.90
49032;DHT22;63443;48.366;10.876;2023-04-26T09:10:00;11.90;96.60
49032;DHT22;63443;48.366;10.876;2023-04-26T09:12:26;12.00;97.00
49032;DHT22;63443;48.366;10.876;2023-04-26T09:14:52;12.20;96.40
49032;DHT22;63443;48.366;10.876;2023-04-26T09:17:43;12.30;95.60
49032;DHT22;63443;48.366;10.876;2023-04-26T09:20:18;12.30;93.60
49032;DHT22;63443;48.366;10.876;2023-04-26T09:22:45;12.20;92.40
49032;DHT22;63443;48.366;10.876;2023-04-26T09:25:12;12.00;93.90
49032;DHT22;63443;48.366;10.876;2023-04-26T09:27:41;12.00;94.30
49032;DHT22;63443;48.366;10.876;2023-04-26T09:30:15;12.10;94.00
49032;DHT22;63443;48.366;10.876;2023-04-26T09:32:55;12.10;92.80
49032;DHT22;63443;48.366;10.876;2023-04-26T09:35:31;12.10;92.80
49032;DHT22;63443;48.366;10.876;2023-04-26T09:38:16;12.10;92.80
49032;DHT22;63443;48.366;10.876;2023-04-26T09:40:47;12.20;92.70
49032;DHT22;63443;48.366;10.876;2023-04-26T09:43:14;12.30;91.50
49032;DHT22;63443;48.366;10.876;2023-04-26T09:45:57;12.20;91.60
49032;DHT22;63443;48.366;10.876;2023-04-26T09:48:27;12.30;91.30
49032;DHT22;63443;48.366;10.876;2023-04-26T09:53:39;12.20;91.30
49032;DHT22;63443;48.366;10.876;2023-04-26T09:56:13;12.20;91.50
49032;DHT22;63443;48.366;10.876;2023-04-26T09:58:55;12.20;91.20
49032;DHT22;63443;48.366;10.876;2023-04-26T10:01:26;12.10;91.10
49032;DHT22;63443;48.366;10.876;2023-04-26T10:03:54;12.10;91.20
49032;DHT22;63443;48.366;10.876;2023-04-26T10:06:22;11.90;91.00
49032;DHT22;63443;48.366;10.876;2023-04-26T10:08:47;11.90;91.20
49032;DHT22;63443;48.366;10.876;2023-04-26T10:11:13;11.80;91.20
49032;DHT22;63443;48.366;10.876;2023-04-26T10:13:39;11.80;91.30
49032;DHT22;63443;48.366;10.876;2023-04-26T10:16:06;11.80;91.70
49032;DHT22;63443;48.366;10.876;2023-04-26T10:18:32;11.80;91.10
49032;DHT22;63443;48.366;10.876;2023-04-26T10:21:21;11.80;91.30
49032;DHT22;63443;48.366;10.876;2023-04-26T10:23:47;11.90;91.30
49032;DHT22;63443;48.366;10.876;2023-04-26T10:26:52;11.90;91.00
49032;DHT22;63443;48.366;10.876;2023-04-26T10:29:22;11.90;91.00
49032;DHT22;63443;48.366;10.876;2023-04-26T10:32:07;11.90;90.90
49032;DHT22;63443;48.366;10.876;2023-04-26T10:34:34;12.00;90.90
49032;DHT22;63443;48.366;10.876;2023-04-26T10:37:09;12.20;90.20
49032;DHT22;63443;48.366;10.876;2023-04-26T10:39:36;12.30;90.70
49032;DHT22;63443;48.366;10.876;2023-04-26T10:42:27;12.40;90.30
49032;DHT22;63443;48.366;10.876;2023-04-26T10:44:58;12.50;89.50
49032;DHT22;63443;48.366;10.876;2023-04-26T10:47:30;12.40;89.20
49032;DHT22;63443;48.366;10.876;2023-04-26T10:50:11;12.30;88.70
49032;DHT22;63443;48.366;10.876;2023-04-26T10:55:40;12.40;90.60
49032;DHT22;63443;48.366;10.876;2023-04-26T11:03:30;12.50;89.60
49032;DHT22;63443;48.366;10.876;2023-04-26T11:05:56;12.40;88.80
49032;DHT22;63443;48.366;10.876;2023-04-26T11:08:29;12.50;90.30
49032;DHT22;63443;48.366;10.876;2023-04-26T11:13:31;12.60;90.70
49032;DHT22;63443;48.366;10.876;2023-04-26T11:16:04;12.70;91.20
49032;DHT22;63443;48.366;10.876;2023-04-26T11:18:31;12.90;90.80
49032;DHT22;63443;48.366;10.876;2023-04-26T11:20:57;13.20;89.90
49032;DHT22;63443;48.366;10.876;2023-04-26T11:23:29;13.30;89.30
49032;DHT22;63443;48.366;10.876;2023-04-26T11:26:05;13.40;87.70
49032;DHT22;63443;48.366;10.876;2023-04-26T11:28:37;13.40;87.80
49032;DHT22;63443;48.366;10.876;2023-04-26T11:31:04;13.40;86.70
49032;DHT22;63443;48.366;10.876;2023-04-26T11:33:30;13.40;86.80
49032;DHT22;63443;48.366;10.876;2023-04-26T11:35:58;13.40;87.50
49032;DHT22;63443;48.366;10.876;2023-04-26T11:38:25;13.50;86.30
49032;DHT22;63443;48.366;10.876;2023-04-26T11:40:59;13.60;86.40
49032;DHT22;63443;48.366;10.876;2023-04-26T11:43:32;13.70;84.20
49032;DHT22;63443;48.366;10.876;2023-04-26T11:45:59;13.80;82.60
49032;DHT22;63443;48.366;10.876;2023-04-26T11:48:26;13.90;82.00
49032;DHT22;63443;48.366;10.876;2023-04-26T11:50:52;13.90;81.30
49032;DHT22;63443;48.366;10.876;2023-04-26T11:53:18;13.90;81.70
49032;DHT22;63443;48.366;10.876;2023-04-26T11:55:44;13.90;82.20
49032;DHT22;63443;48.366;10.876;2023-04-26T11:58:13;14.10;83.20
49032;DHT22;63443;48.366;10.876;2023-04-26T12:00:59;14.30;82.50
49032;DHT22;63443;48.366;10.876;2023-04-26T12:03:33;14.60;81.70
49032;DHT22;63443;48.366;10.876;2023-04-26T12:06:03;14.60;78.00
49032;DHT22;63443;48.366;10.876;2023-04-26T12:08:31;14.70;76.20
49032;DHT22;63443;48.366;10.876;2023-04-26T12:11:03;14.70;75.50
49032;DHT22;63443;48.366;10.876;2023-04-26T12:13:29;14.80;74.20
49032;DHT22;63443;48.366;10.876;2023-04-26T12:15:55;14.80;73.00
49032;DHT22;63443;48.366;10.876;2023-04-26T12:18:20;14.90;73.70
49032;DHT22;63443;48.366;10.876;2023-04-26T12:20:48;15.10;72.40
49032;DHT22;63443;48.366;10.876;2023-04-26T12:23:15;15.10;70.70
49032;DHT22;63443;48.366;10.876;2023-04-26T12:25:51;15.00;70.90
49032;DHT22;63443;48.366;10.876;2023-04-26T12:28:17;14.90;70.80
49032;DHT22;63443;48.366;10.876;2023-04-26T12:30:43;14.90;71.50
49032;DHT22;63443;48.366;10.876;2023-04-26T12:33:09;15.00;72.40
49032;DHT22;63443;48.366;10.876;2023-04-26T12:35:35;15.10;70.80
49032;DHT22;63443;48.366;10.876;2023-04-26T12:38:01;15.50;71.30
49032;DHT22;63443;48.366;10.876;2023-04-26T12:40:27;15.70;66.60
49032;DHT22;63443;48.366;10.876;2023-04-26T12:42:53;15.70;64.70
49032;DHT22;63443;48.366;10.876;2023-04-26T12:45:21;15.30;64.50
49032;DHT22;63443;48.366;10.876;2023-04-26T12:47:48;15.10;64.70
49032;DHT22;63443;48.366;10.876;2023-04-26T12:50:14;15.10;65.50
49032;DHT22;63443;48.366;10.876;2023-04-26T12:52:41;15.40;66.70
49032;DHT22;63443;48.366;10.876;2023-04-26T12:55:12;15.70;65.30
49032;DHT22;63443;48.366;10.876;2023-04-26T12:57:38;16.20;64.40
49032;DHT22;63443;48.366;10.876;2023-04-26T13:00:05;16.80;64.20
49032;DHT22;63443;48.366;10.876;2023-04-26T13:02:32;17.50;62.20
49032;DHT22;63443;48.366;10.876;2023-04-26T13:04:59;17.70;60.50
49032;DHT22;63443;48.366;10.876;2023-04-26T13:07:26;17.90;59.00
49032;DHT22;63443;48.366;10.876;2023-04-26T13:09:52;19.40;59.20
49032;DHT22;63443;48.366;10.876;2023-04-26T13:12:17;20.00;57.80
49032;DHT22;63443;48.366;10.876;2023-04-26T13:14:43;19.90;55.60
49032;DHT22;63443;48.366;10.876;2023-04-26T13:17:09;19.80;55.30
49032;DHT22;63443;48.366;10.876;2023-04-26T13:19:35;20.00;55.80
49032;DHT22;63443;48.366;10.876;2023-04-26T13:22:04;20.70;55.50
49032;DHT22;63443;48.366;10.876;2023-04-26T13:24:33;21.50;53.50
49032;DHT22;63443;48.366;10.876;2023-04-26T13:26:59;21.90;52.20
49032;DHT22;63443;48.366;10.876;2023-04-26T13:29:25;22.10;50.90
49032;DHT22;63443;48.366;10.876;2023-04-26T13:31:51;22.00;50.00
49032;DHT22;63443;48.366;10.876;2023-04-26T13:34:16;21.90;49.90
49032;DHT22;63443;48.366;10.876;2023-04-26T13:36:43;21.70;50.60
49032;DHT22;63443;48.366;10.876;2023-04-26T13:39:08;21.50;50.20
49032;DHT22;63443;48.366;10.876;2023-04-26T13:41:34;21.30;50.10
49032;DHT22;63443;48.366;10.876;2023-04-26T13:44:00;21.20;50.10
49032;DHT22;63443;48.366;10.876;2023-04-26T13:46:27;21.50;50.20
49032;DHT22;63443;48.366;10.876;2023-04-26T13:48:52;21.60;49.90
49032;DHT22;63443;48.366;10.876;2023-04-26T13:51:18;21.60;49.00
49032;DHT22;63443;48.366;10.876;2023-04-26T13:53:44;22.30;46.70
49032;DHT22;63443;48.366;10.876;2023-04-26T13:56:09;22.00;45.70
49032;DHT22;63443;48.366;10.876;2023-04-26T13:58:35;22.70;46.70
49032;DHT22;63443;48.366;10.876;2023-04-26T14:01:01;26.00;45.70
49032;DHT22;63443;48.366;10.876;2023-04-26T14:03:27;29.10;43.70
49032;DHT22;63443;48.366;10.876;2023-04-26T14:05:53;31.30;39.30
49032;DHT22;63443;48.366;10.876;2023-04-26T14:08:19;33.00;38.00
49032;DHT22;63443;48.366;10.876;2023-04-26T14:10:45;33.50;36.10
49032;DHT22;63443;48.366;10.876;2023-04-26T14:13:11;34.80;35.70
49032;DHT22;63443;48.366;10.876;2023-04-26T14:15:36;36.00;34.60
49032;DHT22;63443;48.366;10.876;2023-04-26T14:18:02;36.20;33.10
49032;DHT22;63443;48.366;10.876;2023-04-26T14:20:27;36.30;32.90
49032;DHT22;63443;48.366;10.876;2023-04-26T14:22:53;35.10;32.40
49032;DHT22;63443;48.366;10.876;2023-04-26T14:25:18;36.20;32.90
49032;DHT22;63443;48.366;10.876;2023-04-26T14:27:44;34.00;32.40
49032;DHT22;63443;48.366;10.876;2023-04-26T14:30:10;31.30;32.80
49032;DHT22;63443;48.366;10.876;2023-04-26T14:32:35;28.70;34.70
49032;DHT22;63443;48.366;10.876;2023-04-26T14:35:01;26.80;36.70
49032;DHT22;63443;48.366;10.876;2023-04-26T14:37:26;25.40;37.10
49032;DHT22;63443;48.366;10.876;2023-04-26T14:39:52;24.40;38.90
49032;DHT22;63443;48.366;10.876;2023-04-26T14:42:17;23.90;38.90
49032;DHT22;63443;48.366;10.876;2023-04-26T14:44:43;23.50;39.10
49032;DHT22;63443;48.366;10.876;2023-04-26T14:47:10;23.20;39.20
49032;DHT22;63443;48.366;10.876;2023-04-26T14:49:36;22.70;39.60
49032;DHT22;63443;48.366;10.876;2023-04-26T14:52:02;23.60;39.90
49032;DHT22;63443;48.366;10.876;2023-04-26T14:54:28;23.80;38.90
49032;DHT22;63443;48.366;10.876;2023-04-26T14:56:54;24.60;38.50
49032;DHT22;63443;48.366;10.876;2023-04-26T14:59:19;25.30;38.20
49032;DHT22;63443;48.366;10.876;2023-04-26T15:01:45;25.50;37.80
49032;DHT22;63443;48.366;10.876;2023-04-26T15:04:11;23.90;37.80
49032;DHT22;63443;48.366;10.876;2023-04-26T15:06:36;23.60;39.20
49032;DHT22;63443;48.366;10.876;2023-04-26T15:09:02;22.70;40.00
49032;DHT22;63443;48.366;10.876;2023-04-26T15:11:28;22.10;40.30
49032;DHT22;63443;48.366;10.876;2023-04-26T15:13:54;21.40;41.20
49032;DHT22;63443;48.366;10.876;2023-04-26T15:16:19;21.30;42.50
49032;DHT22;63443;48.366;10.876;2023-04-26T15:18:45;20.70;43.00
49032;DHT22;63443;48.366;10.876;2023-04-26T15:21:17;20.30;43.00
49032;DHT22;63443;48.366;10.876;2023-04-26T15:23:43;19.80;43.60
49032;DHT22;63443;48.366;10.876;2023-04-26T15:26:09;19.40;43.90
49032;DHT22;63443;48.366;10.876;2023-04-26T15:28:34;19.20;44.40
49032;DHT22;63443;48.366;10.876;2023-04-26T15:31:04;18.90;44.10
49032;DHT22;63443;48.366;10.876;2023-04-26T15:33:31;18.80;44.40
49032;DHT22;63443;48.366;10.876;2023-04-26T15:35:57;18.50;45.00
49032;DHT22;63443;48.366;10.876;2023-04-26T15:38:23;18.30;45.70
49032;DHT22;63443;48.366;10.876;2023-04-26T15:40:48;18.00;46.20